MET'MAP v2.0
soon released !

Expected late october,
this new version will be
more efficient, smarter,
and hosted on a brand new
server x3 powerfull...
...and still free !


Not compatible ?
Try the mobile version !

LOG IN : | Subscribe | Disclaimer | Who is Orbifly ? |
ICAO code :

TAF - LIMJ Genoa Cristoforo Colombo - 14 Nov 2019 15:30 UTC
Data Sources :     NOAA   


- Airport Elevation : 13 ft
- IATA code : GOA
- No reported NOTAMs.


LIMJ - Genoa Cristoforo Colombo

Latest METAR recorded : 2015/08/11 07:50 LIMJ 110750Z 05008KT 020V080 9999 FEW070 27/15 Q1012
TAF TAF LIMJ
Valid from the 14 at 12:00 until the 15 at 12:00 UTC


141100Z 1412/1512 04012KT 9999 RA BKN025 BKN040
TEMPO 1412/1420 4000 SHRA
BECMG 1420/1422 16020KT
TEMPO 1422/1503 16020G35KT
BECMG 1503/1505 22012KT NSW
BECMG 1508/1510 14008KT

Source NOAA


MET'MAP, your aeronautical weather chart ! - Copyright ORBIFLY December 2007

Programming & Development : Alexandra Zaïnal
Co-Developer : Marc-Olivier Méhu
Technical & hardware support : Manuel Goepfert
Concept & Financing : Baudouin d'Aumeries